createdAt,value
2017-09-10T00:01:02.175Z,2.50
2017-09-10T00:03:30.028Z,2.90
2017-09-10T00:05:57.931Z,3.50
2017-09-10T00:08:25.762Z,3.13
2017-09-10T00:10:53.656Z,3.93
2017-09-10T00:13:21.491Z,4.30
2017-09-10T00:15:49.289Z,4.10
2017-09-10T00:18:17.141Z,3.27
2017-09-10T00:20:45.036Z,4.00
2017-09-10T00:23:12.874Z,3.90
2017-09-10T00:25:40.778Z,4.20
2017-09-10T00:28:08.614Z,3.60
2017-09-10T00:30:36.558Z,3.83
2017-09-10T00:33:04.402Z,3.80
2017-09-10T00:35:32.301Z,4.03
2017-09-10T00:38:00.163Z,3.17
2017-09-10T00:40:28.079Z,2.93
2017-09-10T00:42:55.933Z,3.20
2017-09-10T00:45:23.834Z,2.70
2017-09-10T00:47:51.706Z,3.40
2017-09-10T00:50:19.622Z,2.80
2017-09-10T00:52:47.502Z,3.60
2017-09-10T00:55:15.400Z,6.17
2017-09-10T00:57:43.263Z,5.47
2017-09-10T01:00:11.254Z,5.20
2017-09-10T01:02:39.852Z,5.87
2017-09-10T01:05:07.766Z,4.37
2017-09-10T01:07:35.623Z,3.40
2017-09-10T01:10:03.527Z,4.67
2017-09-10T01:12:31.448Z,4.70
2017-09-10T01:14:59.366Z,3.70
2017-09-10T01:17:27.245Z,3.23
2017-09-10T01:19:55.183Z,2.97
2017-09-10T01:22:23.040Z,3.20
2017-09-10T01:24:50.982Z,3.00
2017-09-10T01:27:18.839Z,3.00
2017-09-10T01:29:46.746Z,2.47
2017-09-10T01:32:14.654Z,3.83
2017-09-10T01:34:42.523Z,4.47
2017-09-10T01:37:10.410Z,4.53
2017-09-10T01:39:38.270Z,4.37
2017-09-10T01:42:06.185Z,2.47
2017-09-10T01:44:34.022Z,3.10
2017-09-10T01:47:01.918Z,2.90
2017-09-10T01:49:29.658Z,3.17
2017-09-10T01:51:57.550Z,3.30
2017-09-10T01:54:25.406Z,4.20
2017-09-10T01:56:53.291Z,4.83
2017-09-10T01:59:21.164Z,4.00
2017-09-10T02:01:49.065Z,4.70
2017-09-10T02:04:16.895Z,3.37
2017-09-10T02:06:44.790Z,3.20
2017-09-10T02:09:12.640Z,3.50
2017-09-10T02:11:40.538Z,3.30
2017-09-10T02:14:08.398Z,4.03
2017-09-10T02:16:36.307Z,4.37
2017-09-10T02:19:04.179Z,4.73
2017-09-10T02:21:32.076Z,3.77
2017-09-10T02:23:59.810Z,3.70
2017-09-10T02:26:27.707Z,4.30
2017-09-10T02:28:55.553Z,5.30
2017-09-10T02:31:23.484Z,5.77
2017-09-10T02:33:51.340Z,4.80
2017-09-10T02:36:19.219Z,3.70
2017-09-10T02:38:47.058Z,5.03
2017-09-10T02:41:14.958Z,4.10
2017-09-10T02:43:42.794Z,4.83
2017-09-10T02:46:10.630Z,4.30
2017-09-10T02:48:38.534Z,3.87
2017-09-10T02:51:06.391Z,3.90
2017-09-10T02:53:34.290Z,3.13
2017-09-10T02:56:02.148Z,3.00
2017-09-10T02:58:30.050Z,3.50
2017-09-10T03:00:57.901Z,5.30
2017-09-10T03:03:25.795Z,3.60
2017-09-10T03:05:53.645Z,4.20
2017-09-10T03:08:21.533Z,4.20
2017-09-10T03:10:49.373Z,6.10
2017-09-10T03:13:17.250Z,5.60
2017-09-10T03:15:45.093Z,6.97
2017-09-10T03:18:12.983Z,6.27
2017-09-10T03:20:40.829Z,6.20
2017-09-10T03:23:08.718Z,4.77
2017-09-10T03:25:36.571Z,5.60
2017-09-10T03:28:04.466Z,5.13
2017-09-10T03:30:32.359Z,4.67
2017-09-10T03:33:00.262Z,4.90
2017-09-10T03:35:28.127Z,5.27
2017-09-10T03:37:56.025Z,5.70
2017-09-10T03:40:23.896Z,5.47
2017-09-10T03:42:51.788Z,5.77
2017-09-10T03:45:19.698Z,4.60
2017-09-10T03:47:47.591Z,4.73
2017-09-10T03:50:15.506Z,4.90
2017-09-10T03:52:43.398Z,5.50
2017-09-10T03:55:11.240Z,4.90
2017-09-10T03:57:39.133Z,4.50
2017-09-10T04:00:06.973Z,5.30
2017-09-10T04:02:34.883Z,4.57
2017-09-10T04:05:02.715Z,4.20
2017-09-10T04:07:30.562Z,4.13
2017-09-10T04:09:58.483Z,4.10
2017-09-10T04:12:26.327Z,4.03
2017-09-10T04:14:54.227Z,5.93
2017-09-10T04:17:22.085Z,5.60
2017-09-10T04:19:49.900Z,5.60
2017-09-10T04:22:17.750Z,5.00
2017-09-10T04:24:45.637Z,5.17
2017-09-10T04:27:13.491Z,5.30
2017-09-10T04:29:41.385Z,6.27
2017-09-10T04:32:09.318Z,6.80
2017-09-10T04:34:37.229Z,5.20
2017-09-10T04:37:05.075Z,4.80
2017-09-10T04:39:32.977Z,4.60
2017-09-10T04:42:00.851Z,4.30
2017-09-10T04:44:28.756Z,4.57
2017-09-10T04:46:56.681Z,4.80
2017-09-10T04:49:24.583Z,4.70
2017-09-10T04:51:52.442Z,4.17
2017-09-10T04:54:20.350Z,4.47
2017-09-10T04:56:48.226Z,3.90
2017-09-10T04:59:16.138Z,7.33
2017-09-10T05:01:43.982Z,9.50
2017-09-10T05:04:11.899Z,6.80
2017-09-10T05:06:39.761Z,5.90
2017-09-10T05:09:07.649Z,4.80
2017-09-10T05:11:35.530Z,4.63
2017-09-10T05:14:03.475Z,4.83
2017-09-10T05:16:31.346Z,4.37
2017-09-10T05:18:59.255Z,4.10
2017-09-10T05:21:27.134Z,4.10
2017-09-10T05:23:54.910Z,3.70
2017-09-10T05:26:22.734Z,4.80
2017-09-10T05:28:50.613Z,5.23
2017-09-10T05:31:18.551Z,5.10
2017-09-10T05:33:46.497Z,5.50
2017-09-10T05:36:14.352Z,5.00
2017-09-10T05:38:42.292Z,5.07
2017-09-10T05:41:10.143Z,4.40
2017-09-10T05:43:38.115Z,6.30
2017-09-10T05:46:06.023Z,5.97
2017-09-10T05:48:33.978Z,6.00
2017-09-10T05:51:01.846Z,6.27
2017-09-10T05:53:29.693Z,7.13
2017-09-10T05:55:57.610Z,6.43
2017-09-10T05:58:25.466Z,6.93
2017-09-10T06:00:53.373Z,7.83
2017-09-10T06:03:21.232Z,7.63
2017-09-10T06:05:49.154Z,9.30
2017-09-10T06:08:17.075Z,8.07
2017-09-10T06:10:44.983Z,9.00
2017-09-10T06:13:12.842Z,8.20
2017-09-10T06:15:40.773Z,8.80
2017-09-10T06:18:08.690Z,9.40
2017-09-10T06:20:36.606Z,9.60
2017-09-10T06:23:04.476Z,8.00
2017-09-10T06:25:32.393Z,8.80
2017-09-10T06:28:00.281Z,8.03
2017-09-10T06:30:28.233Z,8.20
2017-09-10T06:32:56.110Z,9.03
2017-09-10T06:35:24.027Z,8.37
2017-09-10T06:37:51.899Z,8.87
2017-09-10T06:40:19.792Z,8.40
2017-09-10T06:42:47.645Z,8.63
2017-09-10T06:45:15.601Z,8.63
2017-09-10T06:47:43.483Z,8.90
2017-09-10T06:50:11.394Z,9.00
2017-09-10T06:52:39.274Z,8.50
2017-09-10T06:55:07.180Z,9.40
2017-09-10T06:57:35.064Z,8.93
2017-09-10T07:00:03.012Z,8.57
2017-09-10T07:02:30.904Z,9.37
2017-09-10T07:04:58.816Z,9.17
2017-09-10T07:07:26.733Z,9.47
2017-09-10T07:09:54.663Z,8.70
2017-09-10T07:12:22.550Z,9.40
2017-09-10T07:14:50.489Z,9.90
2017-09-10T07:17:18.360Z,9.80
2017-09-10T07:19:46.335Z,9.57
2017-09-10T07:22:14.302Z,9.17
2017-09-10T07:24:42.257Z,9.83
2017-09-10T07:27:10.124Z,9.77
2017-09-10T07:29:38.022Z,9.50
2017-09-10T07:32:05.940Z,10.03
2017-09-10T07:34:33.844Z,9.40
2017-09-10T07:37:01.705Z,9.43
2017-09-10T07:39:29.566Z,9.60
2017-09-10T07:41:57.523Z,10.33
2017-09-10T07:44:25.493Z,10.37
2017-09-10T07:46:53.542Z,10.50
2017-09-10T07:49:21.455Z,10.13
2017-09-10T07:51:49.375Z,10.23
2017-09-10T07:54:17.254Z,9.57
2017-09-10T07:56:45.151Z,9.67
2017-09-10T07:59:13.026Z,9.47
2017-09-10T08:01:40.946Z,9.20
2017-09-10T08:04:08.793Z,8.83
2017-09-10T08:06:36.722Z,8.63
2017-09-10T08:09:04.692Z,8.77
2017-09-10T08:11:32.599Z,8.50
2017-09-10T08:14:00.454Z,8.60
2017-09-10T08:16:28.426Z,9.00
2017-09-10T08:18:56.368Z,7.80
2017-09-10T08:21:24.285Z,8.20
2017-09-10T08:23:52.242Z,7.73
2017-09-10T08:26:20.150Z,7.10
2017-09-10T08:28:48.041Z,7.10
2017-09-10T08:31:16.008Z,6.40
2017-09-10T08:33:43.900Z,6.87
2017-09-10T08:36:11.814Z,7.30
2017-09-10T08:38:39.754Z,7.23
2017-09-10T08:41:07.702Z,6.50
2017-09-10T08:43:35.556Z,5.90
2017-09-10T08:46:03.538Z,7.63
2017-09-10T08:48:31.417Z,6.30
2017-09-10T08:50:59.341Z,6.20
2017-09-10T08:53:27.250Z,5.87
2017-09-10T08:55:55.995Z,6.10
2017-09-10T08:58:23.829Z,5.80
2017-09-10T09:00:51.732Z,5.23
2017-09-10T09:03:19.582Z,6.67
2017-09-10T09:05:47.519Z,5.67
2017-09-10T09:08:15.407Z,6.00
2017-09-10T09:10:43.305Z,5.70
2017-09-10T09:13:11.225Z,6.10
2017-09-10T09:15:39.226Z,5.70
2017-09-10T09:18:07.089Z,5.33
2017-09-10T09:20:35.034Z,5.70
2017-09-10T09:23:02.915Z,5.30
2017-09-10T09:25:30.799Z,4.90
2017-09-10T09:27:58.744Z,5.67
2017-09-10T09:30:26.624Z,5.27
2017-09-10T09:32:54.594Z,5.57
2017-09-10T09:35:22.474Z,4.87
2017-09-10T09:37:50.402Z,5.03
2017-09-10T09:40:18.257Z,4.90
2017-09-10T09:42:46.187Z,5.03
2017-09-10T09:45:14.052Z,4.57
2017-09-10T09:47:42.011Z,5.10
2017-09-10T09:50:09.977Z,5.00
2017-09-10T09:52:37.951Z,4.30
2017-09-10T09:55:05.818Z,4.90
2017-09-10T09:57:33.753Z,4.40
2017-09-10T10:00:01.618Z,4.33
2017-09-10T10:02:29.568Z,4.10
2017-09-10T10:04:57.415Z,3.37
2017-09-10T10:07:25.335Z,4.03
2017-09-10T10:09:53.199Z,3.30
2017-09-10T10:12:21.151Z,3.70
2017-09-10T10:14:49.072Z,3.43
2017-09-10T10:17:17.002Z,3.80
2017-09-10T10:19:44.874Z,3.70
2017-09-10T10:22:12.795Z,3.30
2017-09-10T10:24:40.680Z,3.40
2017-09-10T10:27:08.591Z,3.63
2017-09-10T10:29:36.465Z,3.33
2017-09-10T10:32:04.407Z,3.40
2017-09-10T10:34:32.270Z,3.13
2017-09-10T10:37:00.170Z,3.03
2017-09-10T10:39:28.059Z,2.73
2017-09-10T10:41:55.979Z,3.03
2017-09-10T10:44:23.902Z,2.70
2017-09-10T10:46:51.838Z,3.03
2017-09-10T10:49:19.619Z,3.20
2017-09-10T10:51:47.528Z,3.30
2017-09-10T10:54:15.411Z,3.07
2017-09-10T10:56:43.326Z,2.80
2017-09-10T10:59:11.183Z,3.23
2017-09-10T11:01:39.090Z,3.80
2017-09-10T11:04:06.972Z,3.30
2017-09-10T11:06:34.953Z,2.93
2017-09-10T11:09:02.841Z,3.10
2017-09-10T11:11:30.686Z,3.83
2017-09-10T11:13:58.607Z,4.00
2017-09-10T11:16:26.491Z,4.33
2017-09-10T11:18:54.439Z,4.20
2017-09-10T11:21:22.335Z,4.20
2017-09-10T11:23:50.283Z,4.13
2017-09-10T11:26:18.144Z,3.70
2017-09-10T11:28:46.071Z,4.60
2017-09-10T11:31:14.006Z,4.70
2017-09-10T11:33:41.917Z,3.90
2017-09-10T11:36:10.076Z,4.20
2017-09-10T11:38:37.985Z,4.00
2017-09-10T11:41:05.862Z,4.90
2017-09-10T11:43:33.820Z,4.47
2017-09-10T11:46:01.697Z,4.47
2017-09-10T11:48:29.654Z,3.60
2017-09-10T11:50:57.568Z,3.73
2017-09-10T11:53:25.525Z,3.93
2017-09-10T11:55:53.380Z,3.70
2017-09-10T11:58:21.272Z,3.73
2017-09-10T12:00:49.113Z,3.93
2017-09-10T12:03:17.088Z,3.97
2017-09-10T12:05:45.008Z,3.10
2017-09-10T12:08:12.914Z,2.57
2017-09-10T12:10:40.808Z,2.70
2017-09-10T12:13:08.735Z,2.20
2017-09-10T12:15:36.597Z,2.30
2017-09-10T12:18:04.440Z,2.40
2017-09-10T12:20:32.311Z,2.50
2017-09-10T12:23:00.232Z,2.77
2017-09-10T12:25:28.101Z,2.70
2017-09-10T12:27:55.997Z,2.63
2017-09-10T12:30:23.912Z,2.60
2017-09-10T12:32:51.891Z,2.40
2017-09-10T12:35:19.767Z,2.50
2017-09-10T12:37:47.579Z,3.00
2017-09-10T12:40:15.430Z,2.90
2017-09-10T12:42:43.331Z,2.70
2017-09-10T12:45:11.217Z,2.77
2017-09-10T12:47:39.148Z,2.63
2017-09-10T12:50:07.071Z,2.67
2017-09-10T12:52:35.013Z,2.33
2017-09-10T12:55:02.890Z,2.50
2017-09-10T12:57:30.775Z,2.60
2017-09-10T12:59:58.773Z,2.20
2017-09-10T13:02:26.651Z,2.20
2017-09-10T13:04:54.591Z,2.50
2017-09-10T13:07:22.443Z,2.30
2017-09-10T13:09:50.373Z,2.37
2017-09-10T13:12:18.222Z,1.90
2017-09-10T13:14:46.193Z,2.73
2017-09-10T13:17:14.048Z,2.10
2017-09-10T13:19:41.929Z,2.40
2017-09-10T13:22:09.771Z,2.43
2017-09-10T13:24:37.700Z,2.00
2017-09-10T13:27:05.565Z,2.33
2017-09-10T13:29:33.525Z,2.20
2017-09-10T13:32:01.426Z,2.37
2017-09-10T13:34:29.366Z,2.43
2017-09-10T13:36:57.212Z,2.20
2017-09-10T13:39:25.129Z,2.30
2017-09-10T13:41:53.077Z,2.00
2017-09-10T13:44:21.082Z,2.37
2017-09-10T13:46:48.956Z,2.10
2017-09-10T13:49:16.884Z,2.23
2017-09-10T13:51:44.798Z,2.30
2017-09-10T13:54:12.797Z,2.10
2017-09-10T13:56:40.745Z,2.33
2017-09-10T13:59:08.655Z,2.23
2017-09-10T14:01:36.515Z,2.33
2017-09-10T14:04:04.401Z,2.00
2017-09-10T14:06:32.340Z,2.30
2017-09-10T14:09:00.298Z,2.40
2017-09-10T14:11:28.242Z,2.50
2017-09-10T14:13:56.104Z,2.60
2017-09-10T14:16:24.034Z,2.40
2017-09-10T14:18:51.825Z,2.23
2017-09-10T14:21:19.822Z,2.60
2017-09-10T14:23:47.682Z,2.33
2017-09-10T14:26:15.591Z,3.00
2017-09-10T14:28:43.479Z,2.53
2017-09-10T14:31:11.430Z,2.70
2017-09-10T14:33:39.358Z,2.60
2017-09-10T14:36:07.287Z,2.90
2017-09-10T14:38:35.175Z,3.13
2017-09-10T14:41:03.114Z,2.73
2017-09-10T14:43:31.035Z,2.50
2017-09-10T14:45:58.950Z,2.80
2017-09-10T14:48:26.855Z,2.97
2017-09-10T14:50:54.788Z,3.00
2017-09-10T14:53:22.666Z,3.07
2017-09-10T14:55:50.610Z,2.47
2017-09-10T14:58:18.428Z,2.67
2017-09-10T15:00:46.388Z,2.73
2017-09-10T15:03:14.296Z,3.10
2017-09-10T15:05:42.227Z,2.73
2017-09-10T15:08:10.066Z,2.93
2017-09-10T15:10:37.986Z,3.03
2017-09-10T15:13:05.867Z,3.07
2017-09-10T15:15:33.822Z,2.73
2017-09-10T15:18:01.684Z,2.90
2017-09-10T15:20:29.603Z,3.10
2017-09-10T15:22:57.470Z,3.20
2017-09-10T15:25:25.445Z,3.10
2017-09-10T15:27:53.287Z,3.17
2017-09-10T15:30:21.253Z,3.10
2017-09-10T15:32:49.214Z,2.90
2017-09-10T15:35:17.156Z,3.47
2017-09-10T15:37:45.020Z,3.30
2017-09-10T15:40:12.924Z,3.30
2017-09-10T15:42:40.794Z,3.30
2017-09-10T15:45:08.750Z,3.07
2017-09-10T15:47:36.679Z,3.20
2017-09-10T15:50:04.562Z,3.30
2017-09-10T15:52:32.463Z,3.97
2017-09-10T15:55:00.416Z,3.30
2017-09-10T15:57:28.394Z,3.10
2017-09-10T15:59:56.314Z,3.37
2017-09-10T16:02:24.263Z,3.07
2017-09-10T16:04:52.101Z,3.10
2017-09-10T16:07:20.021Z,3.33
2017-09-10T16:09:47.886Z,3.40
2017-09-10T16:12:16.007Z,3.13
2017-09-10T16:14:43.866Z,2.90
2017-09-10T16:17:11.796Z,3.27
2017-09-10T16:19:39.632Z,2.83
2017-09-10T16:22:07.549Z,3.00
2017-09-10T16:24:35.506Z,2.83
2017-09-10T16:27:03.469Z,3.10
2017-09-10T16:29:31.352Z,3.07
2017-09-10T16:31:59.283Z,3.30
2017-09-10T16:34:27.198Z,3.20
2017-09-10T16:36:55.145Z,3.10
2017-09-10T16:39:23.018Z,3.40
2017-09-10T16:41:50.974Z,3.53
2017-09-10T16:44:18.915Z,3.23
2017-09-10T16:46:46.827Z,3.73
2017-09-10T16:49:14.736Z,3.70
2017-09-10T16:51:42.668Z,3.17
2017-09-10T16:54:10.506Z,3.87
2017-09-10T16:56:38.482Z,3.40
2017-09-10T16:59:06.410Z,3.90
2017-09-10T17:01:34.368Z,3.53
2017-09-10T17:04:03.201Z,3.70
2017-09-10T17:06:31.149Z,4.47
2017-09-10T17:08:59.045Z,4.10
2017-09-10T17:11:26.951Z,4.30
2017-09-10T17:13:54.818Z,3.90
2017-09-10T17:16:22.720Z,4.03
2017-09-10T17:18:50.588Z,3.90
2017-09-10T17:21:18.503Z,4.00
2017-09-10T17:23:46.377Z,4.30
2017-09-10T17:26:14.204Z,3.87
2017-09-10T17:28:42.049Z,3.60
2017-09-10T17:31:09.987Z,4.13
2017-09-10T17:33:37.853Z,4.23
2017-09-10T17:36:05.762Z,4.40
2017-09-10T17:38:33.619Z,4.50
2017-09-10T17:41:01.455Z,4.30
2017-09-10T17:43:29.367Z,4.33
2017-09-10T17:45:57.222Z,4.20
2017-09-10T17:48:25.203Z,4.03
2017-09-10T17:50:53.129Z,4.33
2017-09-10T17:53:21.087Z,4.60
2017-09-10T17:55:49.019Z,4.40
2017-09-10T17:58:16.922Z,4.40
2017-09-10T18:00:44.832Z,4.70
2017-09-10T18:03:12.754Z,4.20
2017-09-10T18:05:40.624Z,4.67
2017-09-10T18:08:08.533Z,4.77
2017-09-10T18:10:36.419Z,4.50
2017-09-10T18:13:04.379Z,4.80
2017-09-10T18:15:32.263Z,4.83
2017-09-10T18:18:00.196Z,5.07
2017-09-10T18:20:28.126Z,4.43
2017-09-10T18:22:56.033Z,5.10
2017-09-10T18:25:23.892Z,5.20
2017-09-10T18:27:51.837Z,5.20
2017-09-10T18:30:19.744Z,5.30
2017-09-10T18:32:47.699Z,5.90
2017-09-10T18:35:15.548Z,4.97
2017-09-10T18:37:43.474Z,5.00
2017-09-10T18:40:11.331Z,5.23
2017-09-10T18:42:39.281Z,5.10
2017-09-10T18:45:07.152Z,5.77
2017-09-10T18:47:35.126Z,5.27
2017-09-10T18:50:03.049Z,5.73
2017-09-10T18:52:31.000Z,5.87
2017-09-10T18:54:58.903Z,5.50
2017-09-10T18:57:26.920Z,5.60
2017-09-10T18:59:54.731Z,5.90
2017-09-10T19:02:22.674Z,5.97
2017-09-10T19:04:50.594Z,6.20
2017-09-10T19:07:18.506Z,5.60
2017-09-10T19:09:46.271Z,6.00
2017-09-10T19:12:14.080Z,5.07
2017-09-10T19:14:41.931Z,5.23
2017-09-10T19:17:09.821Z,5.43
2017-09-10T19:19:37.741Z,5.40
2017-09-10T19:22:05.607Z,4.93
2017-09-10T19:24:33.552Z,5.27
2017-09-10T19:27:01.440Z,5.13
2017-09-10T19:29:29.363Z,5.07
2017-09-10T19:31:57.286Z,5.10
2017-09-10T19:34:25.233Z,4.73
2017-09-10T19:36:53.089Z,4.43
2017-09-10T19:39:21.036Z,4.57
2017-09-10T19:41:48.882Z,4.10
2017-09-10T19:44:16.807Z,3.83
2017-09-10T19:46:44.722Z,3.93
2017-09-10T19:49:12.700Z,4.40
2017-09-10T19:51:40.577Z,3.93
2017-09-10T19:54:08.491Z,4.27
2017-09-10T19:56:36.356Z,4.13
2017-09-10T19:59:04.258Z,3.97
2017-09-10T20:01:32.129Z,3.70
2017-09-10T20:04:00.060Z,4.30
2017-09-10T20:06:27.923Z,4.00
2017-09-10T20:08:55.851Z,3.47
2017-09-10T20:11:23.739Z,3.63
2017-09-10T20:13:51.640Z,3.60
2017-09-10T20:16:19.492Z,3.90
2017-09-10T20:18:47.392Z,3.70
2017-09-10T20:21:15.319Z,3.77
2017-09-10T20:23:43.257Z,4.37
2017-09-10T20:26:11.119Z,3.83
2017-09-10T20:28:39.036Z,3.40
2017-09-10T20:31:06.956Z,3.77
2017-09-10T20:33:34.863Z,3.90
2017-09-10T20:36:02.716Z,3.70
2017-09-10T20:38:30.664Z,3.30
2017-09-10T20:40:58.546Z,3.73
2017-09-10T20:43:26.443Z,3.47
2017-09-10T20:45:54.322Z,3.80
2017-09-10T20:48:22.240Z,3.60
2017-09-10T20:50:50.169Z,3.67
2017-09-10T20:53:18.038Z,3.53
2017-09-10T20:55:45.930Z,3.40
2017-09-10T20:58:13.806Z,3.17
2017-09-10T21:00:42.174Z,3.50
2017-09-10T21:03:10.015Z,3.40
2017-09-10T21:05:37.934Z,3.70
2017-09-10T21:08:05.779Z,3.57
2017-09-10T21:10:33.675Z,3.97
2017-09-10T21:13:01.589Z,3.83
2017-09-10T21:15:29.500Z,3.60
2017-09-10T21:17:57.370Z,4.10
2017-09-10T21:20:25.300Z,3.50
2017-09-10T21:22:53.183Z,3.90
2017-09-10T21:25:21.064Z,3.67
2017-09-10T21:27:48.938Z,3.40
2017-09-10T21:30:16.850Z,3.60
2017-09-10T21:32:44.804Z,4.00
2017-09-10T21:35:12.734Z,4.00
2017-09-10T21:37:40.490Z,3.57
2017-09-10T21:40:08.382Z,3.50
2017-09-10T21:42:36.258Z,3.47
2017-09-10T21:45:04.192Z,3.70
2017-09-10T21:47:32.023Z,3.63
2017-09-10T21:49:59.975Z,3.67
2017-09-10T21:52:27.819Z,3.90
2017-09-10T21:54:55.752Z,3.40
2017-09-10T21:57:23.619Z,3.27
2017-09-10T21:59:51.515Z,3.00
2017-09-10T22:02:19.364Z,3.50
2017-09-10T22:04:47.341Z,3.87
2017-09-10T22:07:15.240Z,3.30
2017-09-10T22:09:43.122Z,3.43
2017-09-10T22:12:10.968Z,3.93
2017-09-10T22:14:38.838Z,3.40
2017-09-10T22:17:06.669Z,3.33
2017-09-10T22:19:34.568Z,3.27
2017-09-10T22:22:02.424Z,3.80
2017-09-10T22:24:30.310Z,3.60
2017-09-10T22:26:58.159Z,3.60
2017-09-10T22:29:26.043Z,3.20
2017-09-10T22:31:53.945Z,3.13
2017-09-10T22:34:21.821Z,3.10
2017-09-10T22:36:49.663Z,3.20
2017-09-10T22:39:17.490Z,3.03
2017-09-10T22:41:45.396Z,3.60
2017-09-10T22:44:13.243Z,2.63
2017-09-10T22:46:41.169Z,2.80
2017-09-10T22:49:09.062Z,3.00
2017-09-10T22:51:36.982Z,2.83
2017-09-10T22:54:04.815Z,2.87
2017-09-10T22:56:32.722Z,3.30
2017-09-10T22:59:00.554Z,2.90
2017-09-10T23:01:28.431Z,2.83
2017-09-10T23:03:56.274Z,2.70
2017-09-10T23:06:24.150Z,2.73
2017-09-10T23:08:52.015Z,2.20
2017-09-10T23:11:19.902Z,2.80
2017-09-10T23:13:47.735Z,2.80
2017-09-10T23:16:15.611Z,2.90
2017-09-10T23:18:43.440Z,2.80
2017-09-10T23:21:11.333Z,2.43
2017-09-10T23:23:39.145Z,2.27
2017-09-10T23:26:07.003Z,2.33
2017-09-10T23:28:34.834Z,2.33
2017-09-10T23:31:02.786Z,2.90
2017-09-10T23:33:30.633Z,2.30
2017-09-10T23:35:58.511Z,2.50
2017-09-10T23:38:26.331Z,2.50
2017-09-10T23:40:54.232Z,2.33
2017-09-10T23:43:22.074Z,2.13
2017-09-10T23:45:49.964Z,2.30
2017-09-10T23:48:17.817Z,2.17
2017-09-10T23:50:45.723Z,2.47
2017-09-10T23:53:13.575Z,2.30
2017-09-10T23:55:41.454Z,2.17
2017-09-10T23:58:09.296Z,2.60
